sensor_id;sensor_type;location;lat;lon;timestamp;temperature;humidity
60701;DHT22;46541;49.894;10.886;2023-08-07T00:02:00;14.20;99.90
60701;DHT22;46541;49.894;10.886;2023-08-07T00:04:28;14.20;99.90
60701;DHT22;46541;49.894;10.886;2023-08-07T00:06:54;14.20;99.90
60701;DHT22;46541;49.894;10.886;2023-08-07T00:09:21;14.20;99.90
60701;DHT22;46541;49.894;10.886;2023-08-07T00:11:48;14.30;99.90
60701;DHT22;46541;49.894;10.886;2023-08-07T00:14:15;14.30;99.90
60701;DHT22;46541;49.894;10.886;2023-08-07T00:16:42;14.30;99.90
60701;DHT22;46541;49.894;10.886;2023-08-07T00:19:10;14.20;99.90
60701;DHT22;46541;49.894;10.886;2023-08-07T00:21:37;14.30;99.90
60701;DHT22;46541;49.894;10.886;2023-08-07T00:24:04;14.30;99.90
60701;DHT22;46541;49.894;10.886;2023-08-07T00:26:31;14.30;99.90
60701;DHT22;46541;49.894;10.886;2023-08-07T00:28:58;14.30;99.90
60701;DHT22;46541;49.894;10.886;2023-08-07T00:31:25;14.30;99.90
60701;DHT22;46541;49.894;10.886;2023-08-07T00:33:52;14.30;99.90
60701;DHT22;46541;49.894;10.886;2023-08-07T00:36:21;14.30;99.90
60701;DHT22;46541;49.894;10.886;2023-08-07T00:38:47;14.30;99.90
60701;DHT22;46541;49.894;10.886;2023-08-07T00:41:17;14.30;99.90
60701;DHT22;46541;49.894;10.886;2023-08-07T00:43:44;14.30;99.90
60701;DHT22;46541;49.894;10.886;2023-08-07T00:46:11;14.30;99.90
60701;DHT22;46541;49.894;10.886;2023-08-07T00:48:38;14.40;99.90
60701;DHT22;46541;49.894;10.886;2023-08-07T00:51:06;14.30;99.90
60701;DHT22;46541;49.894;10.886;2023-08-07T00:53:37;14.30;99.90
60701;DHT22;46541;49.894;10.886;2023-08-07T00:56:05;14.40;99.90
60701;DHT22;46541;49.894;10.886;2023-08-07T00:58:32;14.40;99.90
60701;DHT22;46541;49.894;10.886;2023-08-07T01:01:00;14.30;99.90
60701;DHT22;46541;49.894;10.886;2023-08-07T01:03:27;14.40;99.90
60701;DHT22;46541;49.894;10.886;2023-08-07T01:05:54;14.40;99.90
60701;DHT22;46541;49.894;10.886;2023-08-07T01:08:20;14.40;99.90
60701;DHT22;46541;49.894;10.886;2023-08-07T01:13:29;14.40;99.90
60701;DHT22;46541;49.894;10.886;2023-08-07T01:16:01;14.40;99.90
60701;DHT22;46541;49.894;10.886;2023-08-07T01:18:30;14.40;99.90
60701;DHT22;46541;49.894;10.886;2023-08-07T01:20:57;14.40;99.90
60701;DHT22;46541;49.894;10.886;2023-08-07T01:23:24;14.40;99.90
60701;DHT22;46541;49.894;10.886;2023-08-07T01:25:51;14.30;99.90
60701;DHT22;46541;49.894;10.886;2023-08-07T01:28:36;14.30;99.90
60701;DHT22;46541;49.894;10.886;2023-08-07T01:31:08;14.30;99.90
60701;DHT22;46541;49.894;10.886;2023-08-07T01:33:59;14.30;99.90
60701;DHT22;46541;49.894;10.886;2023-08-07T01:36:28;14.30;99.90
60701;DHT22;46541;49.894;10.886;2023-08-07T01:38:57;14.30;99.90
60701;DHT22;46541;49.894;10.886;2023-08-07T01:41:26;14.30;99.90
60701;DHT22;46541;49.894;10.886;2023-08-07T01:43:54;14.30;99.90
60701;DHT22;46541;49.894;10.886;2023-08-07T01:46:21;14.20;99.90
60701;DHT22;46541;49.894;10.886;2023-08-07T01:48:48;14.20;99.90
60701;DHT22;46541;49.894;10.886;2023-08-07T01:51:15;14.20;99.90
60701;DHT22;46541;49.894;10.886;2023-08-07T01:53:41;14.20;99.90
60701;DHT22;46541;49.894;10.886;2023-08-07T01:56:08;14.10;99.90
60701;DHT22;46541;49.894;10.886;2023-08-07T01:58:35;14.10;99.90
60701;DHT22;46541;49.894;10.886;2023-08-07T02:01:02;14.10;99.90
60701;DHT22;46541;49.894;10.886;2023-08-07T02:03:28;14.00;99.90
60701;DHT22;46541;49.894;10.886;2023-08-07T02:05:55;14.00;99.90
60701;DHT22;46541;49.894;10.886;2023-08-07T02:08:22;14.00;99.90
60701;DHT22;46541;49.894;10.886;2023-08-07T02:10:49;14.00;99.90
60701;DHT22;46541;49.894;10.886;2023-08-07T02:13:15;14.10;99.90
60701;DHT22;46541;49.894;10.886;2023-08-07T02:15:42;14.00;99.90
60701;DHT22;46541;49.894;10.886;2023-08-07T02:18:09;13.90;99.90
60701;DHT22;46541;49.894;10.886;2023-08-07T02:20:36;13.90;99.90
60701;DHT22;46541;49.894;10.886;2023-08-07T02:23:02;13.90;99.90
60701;DHT22;46541;49.894;10.886;2023-08-07T02:25:29;13.90;99.90
60701;DHT22;46541;49.894;10.886;2023-08-07T02:27:56;13.90;99.90
60701;DHT22;46541;49.894;10.886;2023-08-07T02:30:22;13.90;99.90
60701;DHT22;46541;49.894;10.886;2023-08-07T02:32:49;13.80;99.90
60701;DHT22;46541;49.894;10.886;2023-08-07T02:35:16;13.80;99.90
60701;DHT22;46541;49.894;10.886;2023-08-07T02:37:43;13.80;99.90
60701;DHT22;46541;49.894;10.886;2023-08-07T02:40:10;13.70;99.90
60701;DHT22;46541;49.894;10.886;2023-08-07T02:42:38;13.70;99.90
60701;DHT22;46541;49.894;10.886;2023-08-07T02:45:05;13.70;99.90
60701;DHT22;46541;49.894;10.886;2023-08-07T02:47:32;13.70;99.90
60701;DHT22;46541;49.894;10.886;2023-08-07T02:49:58;13.70;99.90
60701;DHT22;46541;49.894;10.886;2023-08-07T02:52:26;13.70;99.90
60701;DHT22;46541;49.894;10.886;2023-08-07T02:54:52;13.70;99.90
60701;DHT22;46541;49.894;10.886;2023-08-07T02:57:20;13.60;99.90
60701;DHT22;46541;49.894;10.886;2023-08-07T02:59:46;13.50;99.90
60701;DHT22;46541;49.894;10.886;2023-08-07T03:02:13;13.50;99.90
60701;DHT22;46541;49.894;10.886;2023-08-07T03:04:40;13.50;99.90
60701;DHT22;46541;49.894;10.886;2023-08-07T03:07:07;13.50;99.90
60701;DHT22;46541;49.894;10.886;2023-08-07T03:09:33;13.40;99.90
60701;DHT22;46541;49.894;10.886;2023-08-07T03:12:00;13.40;99.90
60701;DHT22;46541;49.894;10.886;2023-08-07T03:14:31;13.40;99.90
60701;DHT22;46541;49.894;10.886;2023-08-07T03:16:58;13.40;99.90
60701;DHT22;46541;49.894;10.886;2023-08-07T03:19:24;13.40;99.90
60701;DHT22;46541;49.894;10.886;2023-08-07T03:21:51;13.40;99.90
60701;DHT22;46541;49.894;10.886;2023-08-07T03:24:18;13.40;99.90
60701;DHT22;46541;49.894;10.886;2023-08-07T03:26:44;13.40;99.90
60701;DHT22;46541;49.894;10.886;2023-08-07T03:29:13;13.40;99.90
60701;DHT22;46541;49.894;10.886;2023-08-07T03:31:40;13.40;99.90
60701;DHT22;46541;49.894;10.886;2023-08-07T03:34:07;13.40;99.90
60701;DHT22;46541;49.894;10.886;2023-08-07T03:36:34;13.30;99.90
60701;DHT22;46541;49.894;10.886;2023-08-07T03:39:01;13.30;99.90
60701;DHT22;46541;49.894;10.886;2023-08-07T03:41:27;13.30;99.90
60701;DHT22;46541;49.894;10.886;2023-08-07T03:43:54;13.30;99.90
60701;DHT22;46541;49.894;10.886;2023-08-07T03:46:21;13.30;99.90
60701;DHT22;46541;49.894;10.886;2023-08-07T03:48:48;13.20;99.90
60701;DHT22;46541;49.894;10.886;2023-08-07T03:51:15;13.20;99.90
60701;DHT22;46541;49.894;10.886;2023-08-07T03:53:43;13.20;99.90
60701;DHT22;46541;49.894;10.886;2023-08-07T03:56:10;13.20;99.90
60701;DHT22;46541;49.894;10.886;2023-08-07T03:58:36;13.20;99.90
60701;DHT22;46541;49.894;10.886;2023-08-07T04:01:03;13.20;99.90
60701;DHT22;46541;49.894;10.886;2023-08-07T04:03:30;13.20;99.90
60701;DHT22;46541;49.894;10.886;2023-08-07T04:05:57;13.20;99.90
60701;DHT22;46541;49.894;10.886;2023-08-07T04:08:24;13.20;99.90
60701;DHT22;46541;49.894;10.886;2023-08-07T04:11:01;13.20;99.90
60701;DHT22;46541;49.894;10.886;2023-08-07T04:13:29;13.20;99.90
60701;DHT22;46541;49.894;10.886;2023-08-07T04:15:57;13.20;99.90
60701;DHT22;46541;49.894;10.886;2023-08-07T04:18:24;13.20;99.90
60701;DHT22;46541;49.894;10.886;2023-08-07T04:20:53;13.20;99.90
60701;DHT22;46541;49.894;10.886;2023-08-07T04:23:20;13.20;99.90
60701;DHT22;46541;49.894;10.886;2023-08-07T04:25:48;13.20;99.90
60701;DHT22;46541;49.894;10.886;2023-08-07T04:28:15;13.20;99.90
60701;DHT22;46541;49.894;10.886;2023-08-07T04:30:43;13.20;99.90
60701;DHT22;46541;49.894;10.886;2023-08-07T04:33:10;13.20;99.90
60701;DHT22;46541;49.894;10.886;2023-08-07T04:35:37;13.20;99.90
60701;DHT22;46541;49.894;10.886;2023-08-07T04:38:04;13.20;99.90
60701;DHT22;46541;49.894;10.886;2023-08-07T04:40:30;13.20;99.90
60701;DHT22;46541;49.894;10.886;2023-08-07T04:42:57;13.20;99.90
60701;DHT22;46541;49.894;10.886;2023-08-07T04:45:24;13.20;99.90
60701;DHT22;46541;49.894;10.886;2023-08-07T04:47:51;13.20;99.90
60701;DHT22;46541;49.894;10.886;2023-08-07T04:50:18;13.20;99.90
60701;DHT22;46541;49.894;10.886;2023-08-07T04:52:45;13.30;99.90
60701;DHT22;46541;49.894;10.886;2023-08-07T04:55:11;13.20;99.90
60701;DHT22;46541;49.894;10.886;2023-08-07T04:57:38;13.30;99.90
60701;DHT22;46541;49.894;10.886;2023-08-07T05:00:05;13.30;99.90
60701;DHT22;46541;49.894;10.886;2023-08-07T05:02:32;13.30;99.90
60701;DHT22;46541;49.894;10.886;2023-08-07T05:04:59;13.30;99.90
60701;DHT22;46541;49.894;10.886;2023-08-07T05:07:26;13.30;99.90
60701;DHT22;46541;49.894;10.886;2023-08-07T05:09:53;13.30;99.90
60701;DHT22;46541;49.894;10.886;2023-08-07T05:12:20;13.40;99.90
60701;DHT22;46541;49.894;10.886;2023-08-07T05:14:46;13.40;99.90
60701;DHT22;46541;49.894;10.886;2023-08-07T05:17:13;13.40;99.90
60701;DHT22;46541;49.894;10.886;2023-08-07T05:19:40;13.40;99.90
60701;DHT22;46541;49.894;10.886;2023-08-07T05:22:07;13.40;99.90
60701;DHT22;46541;49.894;10.886;2023-08-07T05:24:34;13.40;99.90
60701;DHT22;46541;49.894;10.886;2023-08-07T05:27:07;13.50;99.90
60701;DHT22;46541;49.894;10.886;2023-08-07T05:29:35;13.50;99.90
60701;DHT22;46541;49.894;10.886;2023-08-07T05:32:10;13.50;99.90
60701;DHT22;46541;49.894;10.886;2023-08-07T05:34:38;13.50;99.90
60701;DHT22;46541;49.894;10.886;2023-08-07T05:37:05;13.40;99.90
60701;DHT22;46541;49.894;10.886;2023-08-07T05:39:33;13.50;99.90
60701;DHT22;46541;49.894;10.886;2023-08-07T05:42:01;13.50;99.90
60701;DHT22;46541;49.894;10.886;2023-08-07T05:44:29;13.60;99.90
60701;DHT22;46541;49.894;10.886;2023-08-07T05:46:55;13.70;99.90
60701;DHT22;46541;49.894;10.886;2023-08-07T05:49:22;13.70;99.90
60701;DHT22;46541;49.894;10.886;2023-08-07T05:51:52;13.80;99.90
60701;DHT22;46541;49.894;10.886;2023-08-07T05:54:20;14.00;99.90
60701;DHT22;46541;49.894;10.886;2023-08-07T05:56:46;14.10;99.90
60701;DHT22;46541;49.894;10.886;2023-08-07T05:59:13;14.20;99.90
60701;DHT22;46541;49.894;10.886;2023-08-07T06:01:40;14.40;99.90
60701;DHT22;46541;49.894;10.886;2023-08-07T06:04:08;14.50;99.90
60701;DHT22;46541;49.894;10.886;2023-08-07T06:06:35;14.60;99.90
60701;DHT22;46541;49.894;10.886;2023-08-07T06:09:03;14.70;99.90
60701;DHT22;46541;49.894;10.886;2023-08-07T06:11:30;14.70;99.90
60701;DHT22;46541;49.894;10.886;2023-08-07T06:13:57;14.80;99.90
60701;DHT22;46541;49.894;10.886;2023-08-07T06:16:25;14.80;99.90
60701;DHT22;46541;49.894;10.886;2023-08-07T06:18:52;14.90;99.90
60701;DHT22;46541;49.894;10.886;2023-08-07T06:21:19;15.00;99.90
60701;DHT22;46541;49.894;10.886;2023-08-07T06:23:46;15.10;99.90
60701;DHT22;46541;49.894;10.886;2023-08-07T06:26:13;15.00;99.90
60701;DHT22;46541;49.894;10.886;2023-08-07T06:28:41;14.90;99.90
60701;DHT22;46541;49.894;10.886;2023-08-07T06:31:10;15.00;99.90
60701;DHT22;46541;49.894;10.886;2023-08-07T06:33:37;15.00;99.90
60701;DHT22;46541;49.894;10.886;2023-08-07T06:36:06;15.00;99.90
60701;DHT22;46541;49.894;10.886;2023-08-07T06:38:33;14.90;99.90
60701;DHT22;46541;49.894;10.886;2023-08-07T06:41:00;14.90;99.90
60701;DHT22;46541;49.894;10.886;2023-08-07T06:43:27;14.80;99.90
60701;DHT22;46541;49.894;10.886;2023-08-07T06:45:55;14.80;99.90
60701;DHT22;46541;49.894;10.886;2023-08-07T06:48:23;14.70;99.90
60701;DHT22;46541;49.894;10.886;2023-08-07T06:50:50;14.70;99.90
60701;DHT22;46541;49.894;10.886;2023-08-07T06:53:18;14.70;99.90
60701;DHT22;46541;49.894;10.886;2023-08-07T06:55:45;14.60;99.90
60701;DHT22;46541;49.894;10.886;2023-08-07T06:58:12;14.60;99.90
60701;DHT22;46541;49.894;10.886;2023-08-07T07:00:39;14.60;99.90
60701;DHT22;46541;49.894;10.886;2023-08-07T07:03:06;14.60;99.90
60701;DHT22;46541;49.894;10.886;2023-08-07T07:05:34;14.40;99.90
60701;DHT22;46541;49.894;10.886;2023-08-07T07:08:01;14.40;99.90
60701;DHT22;46541;49.894;10.886;2023-08-07T07:10:28;14.40;99.90
60701;DHT22;46541;49.894;10.886;2023-08-07T07:12:55;14.50;99.90
60701;DHT22;46541;49.894;10.886;2023-08-07T07:15:22;14.50;99.90
60701;DHT22;46541;49.894;10.886;2023-08-07T07:17:48;14.50;99.90
60701;DHT22;46541;49.894;10.886;2023-08-07T07:20:15;14.50;99.90
60701;DHT22;46541;49.894;10.886;2023-08-07T07:22:42;14.60;99.90
60701;DHT22;46541;49.894;10.886;2023-08-07T07:25:09;14.60;99.90
60701;DHT22;46541;49.894;10.886;2023-08-07T07:27:36;14.60;99.90
60701;DHT22;46541;49.894;10.886;2023-08-07T07:30:03;14.70;99.90
60701;DHT22;46541;49.894;10.886;2023-08-07T07:32:30;14.70;99.90
60701;DHT22;46541;49.894;10.886;2023-08-07T07:34:57;14.70;99.90
60701;DHT22;46541;49.894;10.886;2023-08-07T07:37:24;14.70;99.90
60701;DHT22;46541;49.894;10.886;2023-08-07T07:39:51;14.60;99.90
60701;DHT22;46541;49.894;10.886;2023-08-07T07:42:18;14.60;99.90
60701;DHT22;46541;49.894;10.886;2023-08-07T07:44:45;14.70;99.90
60701;DHT22;46541;49.894;10.886;2023-08-07T07:47:11;14.60;99.90
60701;DHT22;46541;49.894;10.886;2023-08-07T07:49:45;14.50;99.90
60701;DHT22;46541;49.894;10.886;2023-08-07T07:52:12;14.50;99.90
60701;DHT22;46541;49.894;10.886;2023-08-07T07:54:38;14.40;99.90
60701;DHT22;46541;49.894;10.886;2023-08-07T07:57:05;14.50;99.90
60701;DHT22;46541;49.894;10.886;2023-08-07T07:59:33;14.50;99.90
60701;DHT22;46541;49.894;10.886;2023-08-07T08:02:00;14.60;99.90
60701;DHT22;46541;49.894;10.886;2023-08-07T08:04:26;14.60;99.90
60701;DHT22;46541;49.894;10.886;2023-08-07T08:06:57;14.60;99.90
60701;DHT22;46541;49.894;10.886;2023-08-07T08:09:24;14.70;99.90
60701;DHT22;46541;49.894;10.886;2023-08-07T08:11:51;14.80;99.90
60701;DHT22;46541;49.894;10.886;2023-08-07T08:14:18;14.80;99.90
60701;DHT22;46541;49.894;10.886;2023-08-07T08:16:44;14.80;99.90
60701;DHT22;46541;49.894;10.886;2023-08-07T08:19:11;14.70;99.90
60701;DHT22;46541;49.894;10.886;2023-08-07T08:21:38;14.70;99.90
60701;DHT22;46541;49.894;10.886;2023-08-07T08:24:07;14.70;99.90
60701;DHT22;46541;49.894;10.886;2023-08-07T08:26:34;14.70;99.90
60701;DHT22;46541;49.894;10.886;2023-08-07T08:29:01;14.80;99.90
60701;DHT22;46541;49.894;10.886;2023-08-07T08:31:28;14.90;99.90
60701;DHT22;46541;49.894;10.886;2023-08-07T08:33:55;14.80;99.90
60701;DHT22;46541;49.894;10.886;2023-08-07T08:36:22;14.70;99.90
60701;DHT22;46541;49.894;10.886;2023-08-07T08:38:48;14.70;99.90
60701;DHT22;46541;49.894;10.886;2023-08-07T08:41:16;14.70;99.90
60701;DHT22;46541;49.894;10.886;2023-08-07T08:43:45;14.80;99.90
60701;DHT22;46541;49.894;10.886;2023-08-07T08:46:15;14.80;99.90
60701;DHT22;46541;49.894;10.886;2023-08-07T08:48:46;14.90;99.90
60701;DHT22;46541;49.894;10.886;2023-08-07T08:51:15;15.00;99.90
60701;DHT22;46541;49.894;10.886;2023-08-07T08:53:46;15.00;99.90
60701;DHT22;46541;49.894;10.886;2023-08-07T08:56:14;15.00;99.90
60701;DHT22;46541;49.894;10.886;2023-08-07T08:58:41;15.10;99.90
60701;DHT22;46541;49.894;10.886;2023-08-07T09:01:08;15.10;99.90
60701;DHT22;46541;49.894;10.886;2023-08-07T09:03:36;15.20;99.90
60701;DHT22;46541;49.894;10.886;2023-08-07T09:06:03;15.30;99.90
60701;DHT22;46541;49.894;10.886;2023-08-07T09:08:32;15.40;99.90
60701;DHT22;46541;49.894;10.886;2023-08-07T09:11:01;15.50;99.90
60701;DHT22;46541;49.894;10.886;2023-08-07T09:13:29;15.60;99.90
60701;DHT22;46541;49.894;10.886;2023-08-07T09:16:00;15.60;99.90
60701;DHT22;46541;49.894;10.886;2023-08-07T09:18:28;15.60;99.90
60701;DHT22;46541;49.894;10.886;2023-08-07T09:20:55;15.50;99.90
60701;DHT22;46541;49.894;10.886;2023-08-07T09:23:24;15.40;99.90
60701;DHT22;46541;49.894;10.886;2023-08-07T09:26:02;15.30;99.90
60701;DHT22;46541;49.894;10.886;2023-08-07T09:28:29;15.40;99.90
60701;DHT22;46541;49.894;10.886;2023-08-07T09:30:56;15.30;99.90
60701;DHT22;46541;49.894;10.886;2023-08-07T09:33:26;15.30;99.90
60701;DHT22;46541;49.894;10.886;2023-08-07T09:35:57;15.20;99.90
60701;DHT22;46541;49.894;10.886;2023-08-07T09:38:29;15.20;99.90
60701;DHT22;46541;49.894;10.886;2023-08-07T09:41:00;15.20;99.90
60701;DHT22;46541;49.894;10.886;2023-08-07T09:43:28;15.20;99.90
60701;DHT22;46541;49.894;10.886;2023-08-07T09:46:03;15.20;99.90
60701;DHT22;46541;49.894;10.886;2023-08-07T09:48:30;15.20;99.90
60701;DHT22;46541;49.894;10.886;2023-08-07T09:51:01;15.30;99.90
60701;DHT22;46541;49.894;10.886;2023-08-07T09:53:31;15.20;99.90
60701;DHT22;46541;49.894;10.886;2023-08-07T09:55:59;15.30;99.90
60701;DHT22;46541;49.894;10.886;2023-08-07T09:58:27;15.50;99.90
60701;DHT22;46541;49.894;10.886;2023-08-07T10:00:55;15.50;99.90
60701;DHT22;46541;49.894;10.886;2023-08-07T10:03:26;15.60;99.90
60701;DHT22;46541;49.894;10.886;2023-08-07T10:05:54;15.60;99.90
60701;DHT22;46541;49.894;10.886;2023-08-07T10:08:22;15.80;99.90
60701;DHT22;46541;49.894;10.886;2023-08-07T10:10:49;15.90;99.90
60701;DHT22;46541;49.894;10.886;2023-08-07T10:13:16;15.80;99.90
60701;DHT22;46541;49.894;10.886;2023-08-07T10:15:47;15.80;99.90
60701;DHT22;46541;49.894;10.886;2023-08-07T10:18:15;15.90;99.90
60701;DHT22;46541;49.894;10.886;2023-08-07T10:20:42;15.90;99.90
60701;DHT22;46541;49.894;10.886;2023-08-07T10:23:11;16.00;99.90
60701;DHT22;46541;49.894;10.886;2023-08-07T10:25:41;16.10;99.90
60701;DHT22;46541;49.894;10.886;2023-08-07T10:28:13;16.20;99.90
60701;DHT22;46541;49.894;10.886;2023-08-07T10:30:41;16.30;99.90
60701;DHT22;46541;49.894;10.886;2023-08-07T10:33:10;16.30;99.90
60701;DHT22;46541;49.894;10.886;2023-08-07T10:35:45;16.30;99.90
60701;DHT22;46541;49.894;10.886;2023-08-07T10:38:14;16.50;99.90
60701;DHT22;46541;49.894;10.886;2023-08-07T10:43:30;16.70;99.90
60701;DHT22;46541;49.894;10.886;2023-08-07T10:46:03;16.60;99.90
60701;DHT22;46541;49.894;10.886;2023-08-07T10:48:46;16.60;99.90
60701;DHT22;46541;49.894;10.886;2023-08-07T10:51:14;16.50;99.90
60701;DHT22;46541;49.894;10.886;2023-08-07T10:56:16;16.60;99.90
60701;DHT22;46541;49.894;10.886;2023-08-07T10:58:49;16.60;99.90
60701;DHT22;46541;49.894;10.886;2023-08-07T11:03:58;16.60;99.90
60701;DHT22;46541;49.894;10.886;2023-08-07T11:06:34;16.60;99.90
60701;DHT22;46541;49.894;10.886;2023-08-07T11:09:03;16.70;99.90
60701;DHT22;46541;49.894;10.886;2023-08-07T11:14:07;16.70;99.90
60701;DHT22;46541;49.894;10.886;2023-08-07T11:16:34;16.70;99.90
60701;DHT22;46541;49.894;10.886;2023-08-07T11:19:01;16.80;99.90
60701;DHT22;46541;49.894;10.886;2023-08-07T11:21:31;16.90;99.90
60701;DHT22;46541;49.894;10.886;2023-08-07T11:24:00;16.90;99.90
60701;DHT22;46541;49.894;10.886;2023-08-07T11:26:28;17.00;99.90
60701;DHT22;46541;49.894;10.886;2023-08-07T11:28:55;17.10;99.90
60701;DHT22;46541;49.894;10.886;2023-08-07T11:31:22;17.10;99.90
60701;DHT22;46541;49.894;10.886;2023-08-07T11:34:00;17.30;99.90
60701;DHT22;46541;49.894;10.886;2023-08-07T11:36:29;17.20;99.90
60701;DHT22;46541;49.894;10.886;2023-08-07T11:38:56;17.20;99.90
60701;DHT22;46541;49.894;10.886;2023-08-07T11:41:23;17.20;99.90
60701;DHT22;46541;49.894;10.886;2023-08-07T11:43:50;17.10;99.90
60701;DHT22;46541;49.894;10.886;2023-08-07T11:46:16;17.10;99.90
60701;DHT22;46541;49.894;10.886;2023-08-07T11:48:44;17.10;99.90
60701;DHT22;46541;49.894;10.886;2023-08-07T11:51:11;16.80;99.90
60701;DHT22;46541;49.894;10.886;2023-08-07T11:53:40;16.80;99.90
60701;DHT22;46541;49.894;10.886;2023-08-07T11:56:09;16.70;99.90
60701;DHT22;46541;49.894;10.886;2023-08-07T11:58:43;16.60;99.90
60701;DHT22;46541;49.894;10.886;2023-08-07T12:01:15;16.50;99.90
60701;DHT22;46541;49.894;10.886;2023-08-07T12:06:22;16.20;99.90
60701;DHT22;46541;49.894;10.886;2023-08-07T12:08:50;16.10;99.90
60701;DHT22;46541;49.894;10.886;2023-08-07T12:11:20;15.90;99.90
60701;DHT22;46541;49.894;10.886;2023-08-07T12:13:50;15.90;99.90
60701;DHT22;46541;49.894;10.886;2023-08-07T12:16:17;16.00;99.90
60701;DHT22;46541;49.894;10.886;2023-08-07T12:18:46;16.10;99.90
60701;DHT22;46541;49.894;10.886;2023-08-07T12:21:14;16.10;99.90
60701;DHT22;46541;49.894;10.886;2023-08-07T12:23:43;16.20;99.90
60701;DHT22;46541;49.894;10.886;2023-08-07T12:26:10;16.30;99.90
60701;DHT22;46541;49.894;10.886;2023-08-07T12:28:37;16.30;99.90
60701;DHT22;46541;49.894;10.886;2023-08-07T12:31:04;16.20;99.90
60701;DHT22;46541;49.894;10.886;2023-08-07T12:33:31;16.30;99.90
60701;DHT22;46541;49.894;10.886;2023-08-07T12:35:59;16.40;99.90
60701;DHT22;46541;49.894;10.886;2023-08-07T12:38:26;16.50;99.90
60701;DHT22;46541;49.894;10.886;2023-08-07T12:40:53;16.50;99.90
60701;DHT22;46541;49.894;10.886;2023-08-07T12:43:20;16.60;99.90
60701;DHT22;46541;49.894;10.886;2023-08-07T12:45:47;16.80;99.90
60701;DHT22;46541;49.894;10.886;2023-08-07T12:48:17;16.80;99.90
60701;DHT22;46541;49.894;10.886;2023-08-07T12:50:45;16.80;99.90
60701;DHT22;46541;49.894;10.886;2023-08-07T12:53:12;16.80;99.90
60701;DHT22;46541;49.894;10.886;2023-08-07T12:55:39;16.90;99.90
60701;DHT22;46541;49.894;10.886;2023-08-07T12:58:05;17.10;99.90
60701;DHT22;46541;49.894;10.886;2023-08-07T13:00:32;17.20;99.90
60701;DHT22;46541;49.894;10.886;2023-08-07T13:02:59;17.00;99.90
60701;DHT22;46541;49.894;10.886;2023-08-07T13:05:28;16.80;99.90
60701;DHT22;46541;49.894;10.886;2023-08-07T13:07:55;16.90;99.90
60701;DHT22;46541;49.894;10.886;2023-08-07T13:10:25;17.00;99.90
60701;DHT22;46541;49.894;10.886;2023-08-07T13:12:54;17.10;99.90
60701;DHT22;46541;49.894;10.886;2023-08-07T13:15:21;16.90;99.90
60701;DHT22;46541;49.894;10.886;2023-08-07T13:17:48;16.90;99.90
60701;DHT22;46541;49.894;10.886;2023-08-07T13:20:15;16.90;99.90
60701;DHT22;46541;49.894;10.886;2023-08-07T13:22:43;16.80;99.90
60701;DHT22;46541;49.894;10.886;2023-08-07T13:25:12;16.90;99.90
60701;DHT22;46541;49.894;10.886;2023-08-07T13:27:40;16.80;99.90
60701;DHT22;46541;49.894;10.886;2023-08-07T13:30:08;16.50;99.90
60701;DHT22;46541;49.894;10.886;2023-08-07T13:32:35;16.30;99.90
60701;DHT22;46541;49.894;10.886;2023-08-07T13:35:03;16.40;99.90
60701;DHT22;46541;49.894;10.886;2023-08-07T13:37:31;16.30;99.90
60701;DHT22;46541;49.894;10.886;2023-08-07T13:39:58;16.20;99.90
60701;DHT22;46541;49.894;10.886;2023-08-07T13:42:25;16.10;99.90
60701;DHT22;46541;49.894;10.886;2023-08-07T13:44:54;16.00;99.90
60701;DHT22;46541;49.894;10.886;2023-08-07T13:47:22;15.90;99.90
60701;DHT22;46541;49.894;10.886;2023-08-07T13:49:51;15.80;99.90
60701;DHT22;46541;49.894;10.886;2023-08-07T13:52:18;16.00;99.90
60701;DHT22;46541;49.894;10.886;2023-08-07T13:54:44;16.00;99.90
60701;DHT22;46541;49.894;10.886;2023-08-07T13:57:11;16.10;99.90
60701;DHT22;46541;49.894;10.886;2023-08-07T13:59:39;16.20;99.90
60701;DHT22;46541;49.894;10.886;2023-08-07T14:02:06;16.10;99.90
60701;DHT22;46541;49.894;10.886;2023-08-07T14:04:33;16.20;99.90
60701;DHT22;46541;49.894;10.886;2023-08-07T14:06:59;16.20;99.90
60701;DHT22;46541;49.894;10.886;2023-08-07T14:09:26;16.30;99.90
60701;DHT22;46541;49.894;10.886;2023-08-07T14:11:53;16.50;99.90
60701;DHT22;46541;49.894;10.886;2023-08-07T14:14:20;16.50;99.90
60701;DHT22;46541;49.894;10.886;2023-08-07T14:16:47;16.50;99.90
60701;DHT22;46541;49.894;10.886;2023-08-07T14:19:15;16.50;99.90
60701;DHT22;46541;49.894;10.886;2023-08-07T14:21:41;16.50;99.90
60701;DHT22;46541;49.894;10.886;2023-08-07T14:24:08;16.50;99.90
60701;DHT22;46541;49.894;10.886;2023-08-07T14:26:35;16.50;99.90
60701;DHT22;46541;49.894;10.886;2023-08-07T14:29:02;16.40;99.90
60701;DHT22;46541;49.894;10.886;2023-08-07T14:31:29;16.20;99.90
60701;DHT22;46541;49.894;10.886;2023-08-07T14:33:55;16.20;99.90
60701;DHT22;46541;49.894;10.886;2023-08-07T14:36:23;16.10;99.90
60701;DHT22;46541;49.894;10.886;2023-08-07T14:38:49;16.20;99.90
60701;DHT22;46541;49.894;10.886;2023-08-07T14:41:17;16.70;99.90
60701;DHT22;46541;49.894;10.886;2023-08-07T14:43:45;17.10;99.90
60701;DHT22;46541;49.894;10.886;2023-08-07T14:46:16;17.40;99.90
60701;DHT22;46541;49.894;10.886;2023-08-07T14:48:44;17.90;99.90
60701;DHT22;46541;49.894;10.886;2023-08-07T14:51:10;18.30;99.90
60701;DHT22;46541;49.894;10.886;2023-08-07T14:53:37;18.60;99.90
60701;DHT22;46541;49.894;10.886;2023-08-07T14:56:04;18.70;99.90
60701;DHT22;46541;49.894;10.886;2023-08-07T14:58:30;18.50;99.90
60701;DHT22;46541;49.894;10.886;2023-08-07T15:00:59;18.70;99.90
60701;DHT22;46541;49.894;10.886;2023-08-07T15:03:25;19.00;99.90
60701;DHT22;46541;49.894;10.886;2023-08-07T15:05:52;19.20;99.90
60701;DHT22;46541;49.894;10.886;2023-08-07T15:08:19;18.90;99.90
60701;DHT22;46541;49.894;10.886;2023-08-07T15:10:46;18.90;99.90
60701;DHT22;46541;49.894;10.886;2023-08-07T15:13:13;19.20;99.90
60701;DHT22;46541;49.894;10.886;2023-08-07T15:15:39;18.80;99.90
60701;DHT22;46541;49.894;10.886;2023-08-07T15:18:06;18.50;99.90
60701;DHT22;46541;49.894;10.886;2023-08-07T15:20:36;18.50;99.90
60701;DHT22;46541;49.894;10.886;2023-08-07T15:23:03;18.60;99.90
60701;DHT22;46541;49.894;10.886;2023-08-07T15:25:30;18.70;99.90
60701;DHT22;46541;49.894;10.886;2023-08-07T15:27:57;18.90;99.90
60701;DHT22;46541;49.894;10.886;2023-08-07T15:30:27;18.90;99.90
60701;DHT22;46541;49.894;10.886;2023-08-07T15:32:57;18.80;99.90
60701;DHT22;46541;49.894;10.886;2023-08-07T15:35:24;18.70;99.90